Terminal Aerodrome Forecast
Issued by NWS Tuscon, AZ

Home | Current Version | Previous Version | Text Only | Print | Product List | Glossary On
Versions: 1 2 3 4 5 6 7 8 9 10 11 12 13
000
FTUS45 KTWC 221100
TAFTUS
TAF
KTUS 221130Z 2212/2312 14007KT P6SM BKN200
     FM222000 31007KT P6SM SCT200
     FM230500 14006KT P6SM SKC=

USA.gov is the U.S. government's official web portal to all federal, state and local government web resources and services.